Free Trial

Cognyte Software (CGNT) Institutional Ownership

Cognyte Software logo
$9.88 -0.23 (-2.27%)
Closing price 04:00 PM Eastern
Extended Trading
$10.14 +0.26 (+2.63%)
As of 07:46 PM Eastern
Extended trading is trading that happens on electronic markets outside of regular trading hours. This is a fair market value extended hours price provided by Massive. Learn more.

Institutional Ownership Changes (13F Filings) for Cognyte Software (NASDAQ:CGNT)

Current
Institutional Ownership
Percentage
72.92%
Number of
Institutional Buyers
(last 12 months)
68
Total
Institutional Inflows
(last 12 months)
$61.92M
Number of
Institutional Sellers
(last 12 months)
38
Total
Institutional Outflows
(last 12 months)
$50.19M
Get CGNT Insider Trade Alerts

Want to know when executives and insiders are buying or selling Cognyte Software stock? Sign up for InsiderTrades.com's daily newsletter to get the latest insider transactions delivered to your inbox daily.

SMS is currently available in Australia, Belgium, Canada, France, Germany, Ireland, Italy, New Zealand, the Netherlands, Singapore, South Africa, Spain, Switzerland, the United Kingdom, and the United States. By entering your phone number and clicking the sign-up button, you agree to receive periodic text messages from MarketBeat at the phone number you submitted, including texts that may be sent using an automatic telephone dialing system. Message and data rates may apply. Message frequency will vary. Messages will consist of stock alerts, news stories, and partner advertisements/offers. Consent is not a condition of the purchase of any goods or services. Text HELP for help/customer support. Unsubscribe at any time by replying "STOP" to any text message that you receive from MarketBeat or by visiting our mailing preferences page. Read our full terms of service and privacy policy.
Skip Chart & View Institutional Buying and Selling Data

CGNT Institutional Buying and Selling by Quarter

Cognyte Software Major Shareholders & Ownership History

Reporting DateMajor Shareholder NameShares HeldMarket Value% of PortfolioQuarterly Change in SharesOwnership in CompanyDetails
4/29/2026 R Squared Ltd45,146$366K0.2%-6.7%0.062%
4/27/2026 Y Intercept Hong Kong Ltd81,052$657K0.0%N/A0.111%
4/23/2026 Yelin Lapidot Holdings Management Ltd.100,979$818K0.2%+278.3%0.138%
4/16/2026 SG Americas Securities LLC398,246$3.23M0.0%+97.3%0.545%
4/16/2026 Silverberg Bernstein Capital Management LLC163,997$1.33M0.7%+0.9%0.224%
3/17/2026Rockefeller Capital Management L.P.3,268$31K0.0%+1,478.7%0.004%
2/19/2026Invesco Ltd.11,664$110K0.0%-59.1%0.016%
2/18/2026Vident Advisory LLC88,648$833K0.0%+2.6%0.121%
2/18/2026XTX Topco Ltd94,395$887K0.0%N/A0.129%
2/18/2026Susquehanna Fundamental Investments LLC58,661$551K0.0%N/A0.080%
2/18/2026Millennium Management LLC295,818$2.78M0.0%+38.4%0.405%
2/18/2026Man Group plc60,200$566K0.0%N/A0.082%
2/18/2026Engineers Gate Manager LP35,457$333K0.0%-54.9%0.049%
2/17/2026American Capital Management Inc.6,708,394$63.06M2.8%-0.6%9.193%
2/17/2026PDT Partners LLC64,635$608K0.0%-22.9%0.089%
2/17/2026Lazard Asset Management LLC198,184$1.86M0.0%+70.4%0.272%
2/17/2026Samjo Management LLC896,325$8.43M3.2%+64.4%1.228%
2/17/2026Westerly Capital Management LLC1,155,000$10.86M2.4%+5.0%1.583%
2/17/2026Trexquant Investment LP224,164$2.11M0.0%+202.1%0.307%
2/17/2026Scalar Gauge Management LLC904,099$8.50M5.6%+14.6%1.239%
2/17/2026Magnetar Financial LLC40,673$382K0.0%-34.5%0.056%
2/16/2026Verition Fund Management LLC18,928$178K0.0%N/A0.026%
2/16/2026Aigen Investment Management LP15,033$141K0.0%N/A0.021%
2/13/2026Marshall Wace LLP378,893$3.56M0.0%-25.2%0.519%
2/13/2026Archon Capital Management LLC208,276$1.96M1.1%N/A0.285%
2/12/2026Jane Street Group LLC200,973$1.89M0.0%+82.0%0.275%
2/12/2026HRT Financial LP133,055$1.25M0.0%+2.4%0.182%
2/12/2026 Brooklyn Investment Group16,782$156K0.0%N/A0.023%
2/12/2026Renaissance Technologies LLC566,911$5.33M0.0%+11.8%0.777%
2/12/2026Dimensional Fund Advisors LP76,792$722K0.0%-11.6%0.105%
2/12/2026IQ EQ FUND MANAGEMENT IRELAND Ltd79,253$745K0.1%-16.5%0.109%
2/11/2026ARK Investment Management LLC259,116$2.44M0.0%+23.4%0.355%
2/11/2026LPL Financial LLC11,976$113K0.0%N/A0.016%
2/11/2026JPMorgan Chase & Co.439,271$4.13M0.0%-16.7%0.602%
2/11/2026State of Wyoming4,610$43K0.0%-89.4%0.006%
2/10/2026Goldman Sachs Group Inc.91,721$862K0.0%-13.1%0.126%
2/9/2026Geode Capital Management LLC46,043$433K0.0%-9.9%0.063%
2/6/2026FourThought Financial Partners LLC10,147$95K0.0%N/A0.014%
2/6/2026Global Retirement Partners LLC12,036$113K0.0%N/A0.016%
2/6/2026Covestor Ltd4,747$45K0.0%-24.7%0.007%
2/6/2026GSA Capital Partners LLP132,986$1.25M0.1%+25.2%0.182%
2/5/2026Phoenix Financial Ltd.84,181$791K0.0%-61.6%0.115%
2/5/2026 Yelin Lapidot Holdings Management Ltd.26,690$251K0.1%N/A0.037%
1/30/2026 R Squared Ltd48,409$455K0.2%+44.0%0.066%
1/12/2026 Silverberg Bernstein Capital Management LLC162,500$1.53M0.9%+2.2%0.223%
1/9/2026 SG Americas Securities LLC201,819$1.90M0.0%+4.9%0.277%
1/8/2026 NorthCrest Asset Manangement LLC26,201$238K0.0%N/A0.036%
1/1/2026JPMorgan Chase & Co.527,164$4.43M0.0%-9.4%0.722%
11/17/2025 PharVision Advisers LLC24,711$208K0.1%N/A0.034%
11/17/2025Virtus Advisers LLC21,587$181K0.1%+428.3%0.030%
11/17/2025Westerly Capital Management LLC1,100,000$9.24M2.9%+29.4%1.507%
11/17/2025Quarry LP3,917$33K0.0%N/A0.005%
11/17/2025Qube Research & Technologies Ltd221,566$1.86M0.0%-1.1%0.304%
11/17/2025Public Employees Retirement System of Ohio248,550$2.09M0.0%+7.9%0.341%
11/17/2025Millennium Management LLC213,699$1.80M0.0%-55.0%0.293%
11/17/2025Bank of America Corp DE203,028$1.71M0.0%+25.8%0.278%
11/17/2025Boothbay Fund Management LLC36,688$308K0.0%-28.8%0.050%
11/17/2025Ameriprise Financial Inc.845,670$7.10M0.0%-0.7%1.159%
11/14/2025Lazard Asset Management LLC116,275$977K0.0%+62.9%0.159%
11/14/2025American Capital Management Inc.6,751,962$56.72M2.3%+0.6%9.253%
11/14/2025Two Sigma Investments LP56,800$477K0.0%-8.7%0.078%
11/14/2025Vident Advisory LLC86,423$726K0.0%N/A0.118%
11/14/2025Topline Capital Management LLC7,195,619$60.44M10.4%+2.4%9.861%
11/13/2025Arrowstreet Capital Limited Partnership745,221$6.26M0.0%-11.4%1.021%
11/13/2025Sei Investments Co.130,487$1.10M0.0%-7.4%0.179%
11/13/2025UBS Group AG165,252$1.39M0.0%-3.4%0.226%
11/13/2025Connor Clark & Lunn Investment Management Ltd.1,028,774$8.64M0.0%-5.1%1.410%
11/13/2025BNP Paribas Financial Markets79,244$666K0.0%+132.0%0.109%
11/13/2025Magnetar Financial LLC62,112$522K0.0%+66.2%0.085%
11/13/2025CM Management LLC160,000$1.34M1.1%+60.0%0.219%
11/12/2025ARK Investment Management LLC210,050$1.76M0.0%+21.7%0.288%
11/12/2025William Blair Investment Management LLC1,343,872$11.29M0.0%-5.7%1.842%
11/12/2025 R Squared Ltd33,625$282K0.1%+183.2%0.046%
11/7/2025GSA Capital Partners LLP106,225$892K0.1%+43.2%0.146%
11/7/2025JPMorgan Chase & Co.527,164$4.43M0.0%-9.4%0.722%
11/6/2025Cornerstone Investment Partners LLC18,908$159K0.0%N/A0.026%
11/5/2025IQ EQ FUND MANAGEMENT IRELAND Ltd94,944$798K0.1%+1.9%0.130%
11/4/2025State of Wyoming43,687$367K0.0%+1,767.0%0.060%
10/31/2025Scalar Gauge Management LLC789,099$6.63M3.4%+44.8%1.081%
10/31/2025Vanguard Personalized Indexing Management LLC13,398$113K0.0%+16.0%0.018%
10/31/2025 Y Intercept Hong Kong Ltd97,682$821K0.0%-48.9%0.134%
10/24/2025 State of Alaska Department of Revenue3,286$27K0.0%N/A0.005%
10/23/2025 SG Americas Securities LLC192,360$1.62M0.0%-7.9%0.264%
10/7/2025 Silverberg Bernstein Capital Management LLC159,000$1.34M0.8%+4.5%0.218%
9/4/2025Osaic Holdings Inc.3,634$34K0.0%+79.4%0.005%
8/15/2025State of Tennessee Department of Treasury61,249$566K0.0%+73.5%0.085%
8/15/2025Tidal Investments LLC49,403$456K0.0%+22.1%0.069%
8/15/2025Topline Capital Management LLC7,027,290$64.93M11.2%-1.0%9.752%
8/15/2025Lazard Asset Management LLC71,374$659K0.0%N/A0.099%
8/15/2025G2 Investment Partners Management LLC266,262$2.46M0.5%N/A0.370%
8/15/2025Engineers Gate Manager LP97,119$897K0.0%+13.2%0.135%
8/15/2025BNP Paribas Financial Markets34,162$316K0.0%-17.5%0.047%
8/15/2025Boothbay Fund Management LLC51,492$476K0.0%N/A0.071%
8/15/2025Bank of America Corp DE161,396$1.49M0.0%-38.9%0.224%
8/15/2025Ameriprise Financial Inc.851,305$7.87M0.0%-15.0%1.181%
8/14/2025Westerly Capital Management LLC850,000$7.85M2.9%-20.2%1.180%
8/14/2025PDT Partners LLC83,786$774K0.0%+84.0%0.116%
8/14/2025Kent Lake PR LLC200,000$1.85M0.8%-52.2%0.278%
8/14/2025Sei Investments Co.140,882$1.30M0.0%+2.2%0.196%
8/14/2025Nebula Research & Development LLC26,720$247K0.0%N/A0.037%


CGNT Institutional Ownership - Frequently Asked Questions

Who are the largest shareholders of CGNT shares?

During the previous two years, 105 institutional investors and hedge funds held shares of Cognyte Software. The most heavily invested institutionals were American Capital Management Inc. ($63.06M), Topline Capital Management LLC ($60.44M), Edenbrook Capital LLC ($51.75M), Value Base Ltd. ($49.47M), Acadian Asset Management LLC ($25.70M), William Blair Investment Management LLC ($11.29M), and Westerly Capital Management LLC ($10.86M).Learn more on Cognyte Software's institutional investors.

What percentage of Cognyte Software's stock is owned by institutional investors?

72.92% of Cognyte Software's stock is owned by institutional investors. Learn more on CGNT's institutional investor holdings.

Which institutional investors have been buying Cognyte Software's stock?

Of the 88 institutional investors that purchased Cognyte Software's stock in the last 24 months, the following investors and hedge funds have bought the highest volume of shares: Topline Capital Management LLC ($9.19M), Value Base Ltd. ($5.72M), Acadian Asset Management LLC ($1.11M), Millennium Management LLC ($751.53K), Marshall Wace LLP ($618.21K), Driehaus Capital Management LLC ($576.31K), and Scalar Gauge Management LLC ($569.07K).

How much institutional buying is happening at Cognyte Software?

Institutional investors have bought a total of 7,108,906 shares in the last 24 months. This purchase volume represents approximately $61.92M in transactions.

Which of Cognyte Software's major shareholders have been selling company stock?

Of the 38 institutional investors that sold Cognyte Software's stock in the last 24 months, the following investors and hedge funds have sold the highest volume of shares: Topline Capital Management LLC ($1.99M), William Blair Investment Management LLC ($1.28M), Senvest Management LLC ($397.37K), Millennium Management LLC ($261.65K), Kent Lake PR LLC ($218.31K), Westerly Capital Management LLC ($215K), and JPMorgan Chase & Co. ($197.84K).

How much institutional selling is happening at Cognyte Software?

Institutional investors have sold a total of 5,805,101 shares in the last 24 months. This volume of shares sold represents approximately $50.19M in transactions.



This page (NASDAQ:CGNT) was last updated on 5/5/2026 by MarketBeat.com Staff.
From Our Partners